PEK weather

Beijing Capital International Airport
Beijing, Beijing Municipality, China

Public forecast

Using degrees Celsius for public forecast. Weather courtesy of forecast.io.

Current aviation weather report (METAR) for Beijing Capital International Airport

Retrieved 2019/11/14 17:30 UTC (26 minutes ago):

ZBAA 141730Z 36002MPS CAVOK M01/M06 Q1016 NOSIG

Aviation forecast (TAF) for Beijing Capital International Airport

Retrieved 2019/11/14 12:03 UTC (6 hours ago):

TAF TAF ZBAA 140930Z 1412/1512 33004MPS CAVOK TX09/1507Z TNM03/21Z